createdAt,value
2022-09-16T00:00:10.628Z,86.78
2022-09-16T00:03:19.985Z,86.96
2022-09-16T00:06:30.316Z,86.49
2022-09-16T00:09:37.801Z,86.55
2022-09-16T00:12:44.786Z,86.23
2022-09-16T00:15:54.137Z,86.24
2022-09-16T00:19:03.740Z,86.25
2022-09-16T00:22:14.255Z,85.99
2022-09-16T00:25:20.683Z,85.86
2022-09-16T00:28:28.361Z,85.66
2022-09-16T00:31:34.649Z,85.50
2022-09-16T00:34:42.435Z,85.29
2022-09-16T00:37:51.564Z,85.17
2022-09-16T00:40:58.884Z,85.07
2022-09-16T00:44:10.263Z,85.13
2022-09-16T00:47:19.831Z,84.92
2022-09-16T00:50:38.425Z,84.56
2022-09-16T00:53:57.297Z,84.17
2022-09-16T00:57:07.054Z,84.14
2022-09-16T01:00:15.743Z,83.96
2022-09-16T01:03:23.580Z,84.12
2022-09-16T01:06:32.101Z,84.03
2022-09-16T01:09:43.092Z,83.48
2022-09-16T01:12:53.185Z,83.47
2022-09-16T01:16:06.843Z,83.46
2022-09-16T01:19:36.282Z,83.53
2022-09-16T01:22:57.706Z,83.71
2022-09-16T01:26:22.831Z,83.19
2022-09-16T01:30:10.841Z,83.27
2022-09-16T01:33:35.028Z,83.09
2022-09-16T01:36:49.213Z,83.10
2022-09-16T01:40:07.398Z,83.32
2022-09-16T01:43:21.929Z,83.35
2022-09-16T01:46:38.778Z,83.13
2022-09-16T01:49:56.116Z,83.21
2022-09-16T01:53:13.898Z,83.10
2022-09-16T01:56:26.527Z,83.45
2022-09-16T01:59:44.195Z,83.72
2022-09-16T02:02:58.102Z,83.69
2022-09-16T02:06:13.794Z,83.97
2022-09-16T02:09:25.064Z,84.07
2022-09-16T02:12:38.515Z,83.72
2022-09-16T02:15:48.186Z,83.91
2022-09-16T02:18:58.629Z,83.98
2022-09-16T02:22:12.890Z,84.18
2022-09-16T02:25:23.038Z,84.64
2022-09-16T02:28:33.800Z,84.58
2022-09-16T02:31:42.251Z,84.33
2022-09-16T02:34:52.959Z,84.42
2022-09-16T02:38:10.027Z,84.27
2022-09-16T02:41:17.793Z,84.17
2022-09-16T02:44:25.397Z,83.53
2022-09-16T02:47:36.161Z,83.63
2022-09-16T02:50:51.190Z,83.69
2022-09-16T02:54:06.814Z,83.41
2022-09-16T02:57:14.764Z,83.27
2022-09-16T03:00:21.315Z,83.09
2022-09-16T03:03:28.915Z,82.79
2022-09-16T03:06:36.738Z,82.65
2022-09-16T03:09:50.085Z,82.83
2022-09-16T03:13:06.418Z,82.91
2022-09-16T03:16:20.325Z,82.86
2022-09-16T03:19:34.013Z,82.92
2022-09-16T03:22:52.641Z,82.80
2022-09-16T03:26:08.868Z,82.74
2022-09-16T03:29:22.741Z,82.49
2022-09-16T03:32:35.055Z,82.50
2022-09-16T03:35:46.606Z,82.47
2022-09-16T03:38:56.126Z,81.91
2022-09-16T03:42:11.190Z,81.99
2022-09-16T03:45:20.143Z,81.87
2022-09-16T03:48:27.454Z,81.96
2022-09-16T03:51:33.674Z,82.03
2022-09-16T03:54:41.858Z,81.98
2022-09-16T03:57:51.603Z,82.14
2022-09-16T04:00:59.233Z,81.95
2022-09-16T04:04:08.661Z,82.23
2022-09-16T04:07:16.514Z,81.89
2022-09-16T04:10:23.293Z,82.38
2022-09-16T04:13:35.498Z,82.26
2022-09-16T04:16:45.216Z,82.07
2022-09-16T04:19:53.269Z,82.20
2022-09-16T04:22:59.704Z,82.27
2022-09-16T04:26:09.530Z,82.28
2022-09-16T04:29:18.917Z,82.13
2022-09-16T04:32:26.072Z,82.07
2022-09-16T04:35:32.241Z,81.97
2022-09-16T04:38:40.145Z,81.60
2022-09-16T04:41:46.960Z,81.31
2022-09-16T04:44:56.901Z,81.16
2022-09-16T04:48:03.599Z,81.18
2022-09-16T04:51:13.663Z,80.91
2022-09-16T04:54:19.973Z,80.69
2022-09-16T04:57:27.119Z,80.02
2022-09-16T05:00:36.456Z,79.77
2022-09-16T05:03:44.588Z,79.19
2022-09-16T05:06:51.014Z,78.61
2022-09-16T05:09:58.909Z,78.86
2022-09-16T05:13:07.005Z,78.69
2022-09-16T05:16:18.449Z,78.96
2022-09-16T05:19:25.493Z,78.60
2022-09-16T05:22:32.459Z,78.48
2022-09-16T05:25:38.913Z,78.45
2022-09-16T05:28:46.261Z,78.14
2022-09-16T05:31:55.109Z,77.80
2022-09-16T05:35:03.192Z,78.40
2022-09-16T05:38:09.536Z,78.42
2022-09-16T05:41:16.957Z,77.99
2022-09-16T05:44:23.225Z,78.46
2022-09-16T05:47:34.136Z,78.22
2022-09-16T05:50:40.737Z,77.28
2022-09-16T05:53:50.327Z,78.34
2022-09-16T05:56:56.494Z,78.29
2022-09-16T06:00:04.019Z,77.72
2022-09-16T06:03:18.792Z,77.48
2022-09-16T06:06:28.471Z,77.21
2022-09-16T06:09:34.558Z,76.59
2022-09-16T06:12:41.556Z,77.32
2022-09-16T06:15:54.751Z,77.56
2022-09-16T06:19:06.291Z,76.20
2022-09-16T06:22:12.585Z,76.41
2022-09-16T06:25:19.498Z,76.09
2022-09-16T06:28:25.361Z,75.91
2022-09-16T06:31:32.749Z,75.79
2022-09-16T06:34:42.051Z,75.70
2022-09-16T06:37:48.831Z,76.42
2022-09-16T06:40:54.899Z,77.00
2022-09-16T06:44:03.386Z,77.38
2022-09-16T06:47:09.475Z,76.90
2022-09-16T06:50:19.144Z,76.65
2022-09-16T06:53:26.025Z,75.34
2022-09-16T06:56:34.329Z,75.60
2022-09-16T06:59:40.538Z,76.07
2022-09-16T07:02:47.217Z,76.57
2022-09-16T07:06:03.469Z,76.30
2022-09-16T07:09:10.818Z,75.63
2022-09-16T07:12:19.640Z,74.95
2022-09-16T07:15:26.657Z,75.05
2022-09-16T07:18:32.901Z,75.23
2022-09-16T07:21:42.747Z,75.18
2022-09-16T07:25:03.456Z,74.78
2022-09-16T07:28:10.263Z,74.52
2022-09-16T07:31:17.876Z,74.53
2022-09-16T07:34:24.795Z,74.45
2022-09-16T07:37:33.298Z,74.56
2022-09-16T07:40:40.994Z,73.98
2022-09-16T07:43:47.319Z,75.15
2022-09-16T07:46:54.402Z,73.52
2022-09-16T07:50:00.155Z,73.90
2022-09-16T07:53:11.455Z,74.84
2022-09-16T07:56:19.008Z,75.48
2022-09-16T07:59:25.643Z,75.29
2022-09-16T08:02:31.420Z,75.44
2022-09-16T08:05:38.078Z,75.02
2022-09-16T08:08:47.341Z,75.67
2022-09-16T08:11:54.434Z,74.83
2022-09-16T08:15:00.359Z,73.44
2022-09-16T08:18:09.847Z,73.03
2022-09-16T08:21:18.268Z,72.12
2022-09-16T08:24:28.211Z,72.47
2022-09-16T08:27:34.081Z,72.08
2022-09-16T08:30:40.798Z,69.36
2022-09-16T08:33:47.894Z,69.50
2022-09-16T08:36:54.587Z,70.27
2022-09-16T08:40:03.232Z,68.87
2022-09-16T08:43:19.207Z,69.22
2022-09-16T08:46:32.896Z,68.19
2022-09-16T08:49:45.739Z,69.24
2022-09-16T08:52:55.353Z,69.43
2022-09-16T08:56:08.754Z,67.64
2022-09-16T08:59:20.898Z,67.54
2022-09-16T09:02:43.057Z,67.36
2022-09-16T09:05:55.199Z,67.81
2022-09-16T09:09:13.373Z,68.36
2022-09-16T09:12:29.634Z,67.12
2022-09-16T09:15:44.459Z,65.25
2022-09-16T09:19:03.332Z,65.24
2022-09-16T09:22:30.780Z,62.40
2022-09-16T09:25:45.072Z,62.10
2022-09-16T09:29:23.857Z,63.33
2022-09-16T09:32:49.636Z,63.59
2022-09-16T09:36:15.833Z,63.56
2022-09-16T09:39:34.945Z,64.19
2022-09-16T09:42:46.321Z,64.17
2022-09-16T09:46:01.356Z,63.69
2022-09-16T09:49:16.668Z,63.46
2022-09-16T09:52:29.655Z,63.69
2022-09-16T09:55:38.743Z,62.83
2022-09-16T09:58:49.708Z,62.45
2022-09-16T10:02:03.994Z,62.39
2022-09-16T10:05:19.021Z,62.03
2022-09-16T10:08:30.498Z,61.73
2022-09-16T10:11:36.518Z,59.19
2022-09-16T10:14:43.193Z,59.07
2022-09-16T10:17:55.672Z,57.97
2022-09-16T10:21:09.575Z,58.08
2022-09-16T10:24:32.421Z,59.66
2022-09-16T10:27:41.195Z,60.88
2022-09-16T10:30:50.319Z,59.25
2022-09-16T10:34:03.334Z,59.28
2022-09-16T10:37:19.775Z,60.80
2022-09-16T10:40:28.362Z,60.85
2022-09-16T10:43:35.062Z,59.05
2022-09-16T10:46:53.151Z,59.89
2022-09-16T10:50:06.364Z,57.64
2022-09-16T10:53:26.019Z,57.84
2022-09-16T10:56:33.861Z,58.53
2022-09-16T10:59:40.571Z,58.08
2022-09-16T11:03:17.388Z,57.79
2022-09-16T11:06:43.476Z,56.92
2022-09-16T11:10:00.209Z,56.73
2022-09-16T11:13:29.512Z,56.65
2022-09-16T11:17:06.728Z,56.11
2022-09-16T11:20:53.806Z,58.24
2022-09-16T11:24:18.109Z,57.79
2022-09-16T11:27:37.446Z,55.80
2022-09-16T11:30:51.297Z,56.88
2022-09-16T11:34:08.663Z,57.03
2022-09-16T11:37:25.281Z,56.02
2022-09-16T11:40:48.120Z,56.04
2022-09-16T11:44:20.931Z,56.07
2022-09-16T11:47:52.880Z,52.91
2022-09-16T11:51:09.273Z,54.61
2022-09-16T11:54:45.956Z,57.50
2022-09-16T11:57:59.021Z,58.22
2022-09-16T12:04:36.185Z,58.18
2022-09-16T12:07:51.690Z,58.68
2022-09-16T12:11:00.817Z,58.51
2022-09-16T12:14:18.794Z,57.76
2022-09-16T12:17:28.065Z,57.45
2022-09-16T12:20:38.544Z,57.62
2022-09-16T12:23:48.436Z,57.11
2022-09-16T12:27:03.307Z,56.68
2022-09-16T12:30:18.609Z,56.21
2022-09-16T12:33:29.167Z,54.98
2022-09-16T12:36:38.240Z,56.26
2022-09-16T12:39:46.258Z,56.32
2022-09-16T12:43:35.192Z,55.29
2022-09-16T12:47:06.105Z,54.77
2022-09-16T12:50:50.524Z,53.93
2022-09-16T12:54:45.797Z,51.64
2022-09-16T12:58:28.489Z,52.55
2022-09-16T13:01:40.517Z,53.15
2022-09-16T13:04:53.799Z,54.16
2022-09-16T13:08:04.223Z,55.45
2022-09-16T13:12:16.426Z,55.75
2022-09-16T13:14:51.079Z,56.49
2022-09-16T13:17:57.726Z,56.86
2022-09-16T13:21:11.482Z,57.20
2022-09-16T13:24:23.832Z,57.62
2022-09-16T13:27:34.893Z,57.94
2022-09-16T13:30:41.407Z,56.18
2022-09-16T13:33:50.080Z,56.00
2022-09-16T13:36:58.838Z,56.58
2022-09-16T13:40:23.228Z,57.50
2022-09-16T13:43:33.722Z,57.05
2022-09-16T13:46:41.265Z,57.00
2022-09-16T13:49:52.579Z,58.09
2022-09-16T13:53:12.318Z,59.73
2022-09-16T13:56:36.194Z,61.43
2022-09-16T14:03:38.689Z,63.81
2022-09-16T14:06:55.028Z,65.20
2022-09-16T14:10:15.049Z,69.02
2022-09-16T14:13:23.621Z,71.61
2022-09-16T14:16:32.844Z,73.17
2022-09-16T14:19:42.244Z,74.19
2022-09-16T14:22:48.696Z,74.34
2022-09-16T14:25:58.607Z,75.23
2022-09-16T14:29:06.271Z,74.94
2022-09-16T14:32:17.031Z,75.10
2022-09-16T14:35:27.377Z,74.54
2022-09-16T14:38:45.937Z,73.90
2022-09-16T14:41:58.574Z,73.37
2022-09-16T14:45:08.998Z,73.54
2022-09-16T14:48:18.099Z,72.98
2022-09-16T14:51:29.286Z,72.59
2022-09-16T14:54:35.322Z,72.92
2022-09-16T14:57:45.297Z,72.17
2022-09-16T15:00:55.184Z,71.86
2022-09-16T15:04:07.437Z,71.29
2022-09-16T15:07:19.597Z,71.58
2022-09-16T15:10:35.846Z,72.16
2022-09-16T15:13:57.939Z,72.19
2022-09-16T15:17:07.066Z,72.27
2022-09-16T15:20:23.661Z,71.73
2022-09-16T15:23:32.252Z,71.50
2022-09-16T15:26:45.261Z,71.12
2022-09-16T15:29:59.605Z,71.50
2022-09-16T15:33:31.212Z,72.16
2022-09-16T15:36:43.103Z,71.90
2022-09-16T15:39:48.980Z,72.27
2022-09-16T15:43:07.833Z,72.35
2022-09-16T15:46:22.458Z,72.57
2022-09-16T15:49:33.316Z,73.42
2022-09-16T15:53:00.730Z,72.36
2022-09-16T15:56:12.188Z,72.48
2022-09-16T15:59:29.214Z,72.39
2022-09-16T16:02:47.782Z,71.69
2022-09-16T16:05:55.159Z,71.65
2022-09-16T16:09:03.156Z,71.69
2022-09-16T16:12:11.808Z,71.38
2022-09-16T16:15:20.140Z,71.36
2022-09-16T16:18:29.173Z,71.18
2022-09-16T16:21:36.075Z,71.49
2022-09-16T16:24:42.743Z,71.72
2022-09-16T16:27:49.623Z,71.63
2022-09-16T16:30:55.770Z,71.59
2022-09-16T16:34:06.155Z,71.73
2022-09-16T16:37:33.862Z,72.00
2022-09-16T16:40:42.081Z,71.91
2022-09-16T16:43:48.069Z,72.18
2022-09-16T16:46:56.053Z,72.12
2022-09-16T16:50:06.465Z,72.56
2022-09-16T16:53:14.369Z,72.56
2022-09-16T16:56:21.692Z,72.55
2022-09-16T16:59:29.537Z,72.37
2022-09-16T17:02:35.392Z,71.89
2022-09-16T17:05:44.875Z,71.63
2022-09-16T17:08:50.676Z,71.76
2022-09-16T17:11:58.981Z,72.02
2022-09-16T17:15:06.476Z,72.08
2022-09-16T17:18:13.474Z,72.03
2022-09-16T17:21:23.877Z,72.53
2022-09-16T17:24:30.463Z,72.58
2022-09-16T17:27:36.181Z,72.86
2022-09-16T17:30:46.118Z,72.89
2022-09-16T17:33:52.408Z,73.22
2022-09-16T17:37:03.046Z,72.97
2022-09-16T17:40:10.053Z,72.92
2022-09-16T17:43:16.973Z,73.21
2022-09-16T17:46:23.630Z,73.42
2022-09-16T17:49:30.519Z,73.69
2022-09-16T17:52:39.078Z,73.81
2022-09-16T17:55:45.892Z,73.93
2022-09-16T17:58:54.074Z,74.28
2022-09-16T18:02:00.669Z,74.37
2022-09-16T18:05:08.504Z,74.56
2022-09-16T18:08:18.001Z,74.81
2022-09-16T18:11:24.633Z,74.97
2022-09-16T18:14:31.495Z,74.89
2022-09-16T18:17:37.239Z,74.67
2022-09-16T18:20:44.104Z,74.61
2022-09-16T18:23:57.033Z,74.69
2022-09-16T18:27:04.008Z,74.64
2022-09-16T18:30:11.105Z,74.79
2022-09-16T18:33:18.499Z,74.96
2022-09-16T18:36:25.703Z,75.14
2022-09-16T18:39:37.485Z,75.24
2022-09-16T18:42:43.238Z,75.41
2022-09-16T18:45:50.147Z,75.70
2022-09-16T18:48:56.923Z,75.76
2022-09-16T18:52:04.267Z,75.96
2022-09-16T18:55:13.063Z,76.10
2022-09-16T18:58:19.883Z,76.02
2022-09-16T19:01:28.988Z,76.27
2022-09-16T19:04:40.642Z,76.36
2022-09-16T19:07:46.395Z,76.57
2022-09-16T19:10:58.667Z,76.62
2022-09-16T19:14:05.965Z,76.53
2022-09-16T19:17:13.173Z,76.88
2022-09-16T19:20:19.323Z,76.93
2022-09-16T19:23:26.440Z,76.79
2022-09-16T19:26:38.247Z,76.90
2022-09-16T19:29:45.444Z,77.25
2022-09-16T19:32:53.732Z,77.39
2022-09-16T19:36:01.368Z,77.48
2022-09-16T19:39:08.771Z,77.70
2022-09-16T19:42:18.519Z,77.87
2022-09-16T19:45:27.872Z,77.87
2022-09-16T19:48:35.768Z,77.86
2022-09-16T19:51:42.426Z,77.67
2022-09-16T19:54:49.624Z,77.78
2022-09-16T19:57:58.454Z,78.12
2022-09-16T20:01:10.203Z,78.09
2022-09-16T20:04:20.085Z,78.39
2022-09-16T20:07:28.246Z,78.27
2022-09-16T20:10:35.104Z,78.09
2022-09-16T20:13:44.959Z,78.21
2022-09-16T20:16:52.709Z,78.50
2022-09-16T20:19:59.596Z,78.13
2022-09-16T20:23:08.720Z,77.83
2022-09-16T20:26:20.099Z,78.26
2022-09-16T20:29:28.922Z,78.25
2022-09-16T20:32:35.781Z,78.54
2022-09-16T20:35:41.714Z,79.21
2022-09-16T20:38:49.089Z,79.36
2022-09-16T20:41:55.279Z,79.71
2022-09-16T20:45:07.373Z,79.88
2022-09-16T20:48:13.964Z,80.22
2022-09-16T20:51:22.709Z,80.15
2022-09-16T20:54:28.863Z,80.66
2022-09-16T20:57:36.162Z,80.77
2022-09-16T21:00:45.411Z,81.01
2022-09-16T21:03:55.304Z,80.94
2022-09-16T21:07:03.313Z,80.95
2022-09-16T21:10:11.609Z,81.23
2022-09-16T21:13:17.662Z,81.48
2022-09-16T21:16:29.677Z,81.69
2022-09-16T21:19:35.982Z,81.71
2022-09-16T21:22:43.068Z,82.20
2022-09-16T21:25:49.137Z,81.96
2022-09-16T21:28:58.154Z,82.04
2022-09-16T21:32:10.023Z,82.16
2022-09-16T21:35:17.373Z,82.16
2022-09-16T21:38:23.825Z,82.55
2022-09-16T21:41:31.356Z,82.52
2022-09-16T21:44:37.584Z,82.52
2022-09-16T21:47:47.531Z,82.19
2022-09-16T21:50:53.897Z,81.94
2022-09-16T21:54:00.901Z,82.25
2022-09-16T21:57:08.123Z,82.51
2022-09-16T22:00:17.902Z,82.52
2022-09-16T22:03:26.851Z,82.31
2022-09-16T22:06:34.079Z,82.09
2022-09-16T22:09:39.924Z,82.54
2022-09-16T22:12:46.767Z,82.59
2022-09-16T22:15:53.288Z,82.31
2022-09-16T22:19:06.991Z,82.55
2022-09-16T22:22:12.755Z,82.49
2022-09-16T22:25:19.494Z,82.73
2022-09-16T22:28:25.270Z,82.87
2022-09-16T22:31:33.819Z,82.55
2022-09-16T22:34:42.394Z,82.82
2022-09-16T22:37:51.307Z,82.98
2022-09-16T22:41:03.322Z,82.75
2022-09-16T22:44:10.085Z,83.02
2022-09-16T22:47:15.840Z,82.74
2022-09-16T22:50:25.188Z,82.70
2022-09-16T22:53:32.090Z,82.55
2022-09-16T22:56:38.737Z,82.23
2022-09-16T22:59:44.989Z,82.65
2022-09-16T23:02:51.700Z,82.40
2022-09-16T23:06:03.363Z,82.49
2022-09-16T23:09:11.750Z,82.51
2022-09-16T23:12:17.999Z,82.35
2022-09-16T23:15:26.655Z,82.43
2022-09-16T23:18:34.383Z,82.40
2022-09-16T23:21:44.665Z,82.47
2022-09-16T23:24:50.572Z,82.50
2022-09-16T23:27:58.381Z,82.83
2022-09-16T23:31:08.688Z,82.34
2022-09-16T23:34:17.935Z,82.46
2022-09-16T23:37:26.932Z,82.29
2022-09-16T23:40:33.902Z,82.16
2022-09-16T23:43:41.550Z,82.22
2022-09-16T23:46:48.321Z,82.56
2022-09-16T23:49:54.504Z,82.29
2022-09-16T23:53:06.084Z,82.21
2022-09-16T23:56:14.294Z,82.21
2022-09-16T23:59:21.259Z,81.91
